Time;durP1;ratioP1;P1;durP2;ratioP2;P2;SDS_P1;SDS_P2;PMS_P1;PMS_P2;Temp;Humidity;BMP_temperature;BMP_pressure;BME280_temperature;BME280_humidity;BME280_pressure;Samples;Min_cycle;Max_cycle;Signal;HPM_P1;HPM_P2
2021/10/29 00:00:55;;;;;;;14.68;6.35;;;;;;;3.82;100.00;97955.38;4964990;28;20055;-66
2021/10/29 00:03:22;;;;;;;23.10;9.65;;;;;;;4.17;100.00;98005.91;4963075;28;20531;-66
2021/10/29 00:05:49;;;;;;;18.20;7.45;;;;;;;3.93;100.00;97948.56;4964615;28;20047;-66
2021/10/29 00:08:16;;;;;;;15.85;7.68;;;;;;;4.13;100.00;97967.31;4964830;28;20082;-65
2021/10/29 00:10:42;;;;;;;14.20;7.38;;;;;;;4.22;100.00;97976.44;4964252;28;20051;-65
2021/10/29 00:13:09;;;;;;;13.43;6.43;;;;;;;4.40;99.99;98005.69;4964270;28;20850;-65
2021/10/29 00:15:38;;;;;;;16.60;8.32;;;;;;;4.34;100.00;98001.44;4964057;28;20057;-66
2021/10/29 00:18:05;;;;;;;14.23;7.68;;;;;;;4.38;100.00;97998.88;4924767;29;20058;-66
2021/10/29 00:20:32;;;;;;;13.27;6.65;;;;;;;4.40;100.00;97993.91;4925590;29;20055;-66
2021/10/29 00:22:59;;;;;;;14.60;7.07;;;;;;;4.11;100.00;97972.28;4926218;29;20113;-65
2021/10/29 00:25:26;;;;;;;14.70;7.45;;;;;;;4.20;100.00;98000.63;4924522;29;20058;-66
2021/10/29 00:27:53;;;;;;;22.35;9.45;;;;;;;4.28;100.00;97990.88;4926246;29;20553;-65
2021/10/29 00:30:20;;;;;;;20.38;8.05;;;;;;;4.28;100.00;97986.19;4925686;29;20491;-66
2021/10/29 00:32:46;;;;;;;22.52;9.77;;;;;;;4.33;100.00;97988.03;4925944;29;20087;-65
2021/10/29 00:35:13;;;;;;;19.33;8.20;;;;;;;4.35;100.00;97980.28;4925881;29;20096;-65
2021/10/29 00:37:40;;;;;;;13.90;7.18;;;;;;;4.33;100.00;97977.84;4925664;29;20051;-66
2021/10/29 00:40:10;;;;;;;14.63;7.88;;;;;;;4.40;100.00;97971.94;4929120;29;20058;-66
2021/10/29 00:42:40;;;;;;;13.40;6.70;;;;;;;3.96;99.17;97911.50;4928372;29;20123;-67
2021/10/29 00:45:09;;;;;;;16.52;7.85;;;;;;;4.38;99.38;97977.75;4929216;29;20090;-66
2021/10/29 00:47:35;;;;;;;16.90;7.72;;;;;;;4.31;99.26;97976.53;4929362;29;20455;-65
2021/10/29 00:50:04;;;;;;;16.17;7.00;;;;;;;4.35;99.58;97983.84;4928854;29;20443;-66
2021/10/29 00:52:31;;;;;;;13.35;6.75;;;;;;;4.30;99.73;97967.50;4929216;29;20443;-65
2021/10/29 00:55:00;;;;;;;11.27;6.45;;;;;;;4.37;99.66;97967.09;4927153;29;20073;-66
2021/10/29 00:57:27;;;;;;;19.17;9.05;;;;;;;4.35;98.84;97969.31;4927648;29;20478;-67
2021/10/29 00:59:54;;;;;;;21.92;9.27;;;;;;;4.38;97.43;97968.69;4928997;29;20048;-66
2021/10/29 01:02:21;;;;;;;18.13;9.90;;;;;;;4.32;97.68;97969.94;4928945;29;20059;-67
2021/10/29 01:04:48;;;;;;;27.33;10.45;;;;;;;3.89;98.06;97916.59;4928634;29;20062;-66
2021/10/29 01:07:15;;;;;;;17.65;9.68;;;;;;;4.16;99.97;97961.22;4928510;29;20052;-66
2021/10/29 01:09:42;;;;;;;20.08;9.40;;;;;;;4.19;100.00;97959.78;4928582;29;20432;-66
2021/10/29 01:12:08;;;;;;;15.60;7.53;;;;;;;4.23;100.00;97956.16;4927047;29;20066;-66
2021/10/29 01:14:35;;;;;;;24.70;11.18;;;;;;;4.17;100.00;97954.63;4927281;29;20070;-66
2021/10/29 01:17:02;;;;;;;55.03;21.55;;;;;;;4.16;100.00;97955.75;4950083;28;20059;-66
2021/10/29 01:19:32;;;;;;;42.80;20.95;;;;;;;4.12;100.00;97962.97;4967282;28;20054;-66
2021/10/29 01:22:00;;;;;;;26.92;14.13;;;;;;;4.13;100.00;97961.84;4966651;28;20054;-66
2021/10/29 01:24:27;;;;;;;15.77;9.50;;;;;;;4.01;100.00;97941.56;4966911;28;20097;-66
2021/10/29 01:26:55;;;;;;;17.80;7.25;;;;;;;4.18;100.00;97952.69;4966759;28;20061;-67
2021/10/29 01:29:22;;;;;;;13.63;6.88;;;;;;;4.15;100.00;97954.13;4966714;28;20508;-66
2021/10/29 01:31:49;;;;;;;13.43;6.38;;;;;;;3.70;100.00;97878.34;4966384;28;20061;-67
2021/10/29 01:34:16;;;;;;;13.13;6.72;;;;;;;4.19;100.00;97944.16;4966691;28;20094;-65
2021/10/29 01:36:44;;;;;;;11.65;5.70;;;;;;;4.21;99.44;97941.94;4966803;28;20054;-66
2021/10/29 01:39:14;;;;;;;12.73;6.15;;;;;;;3.88;99.25;97893.88;4965681;28;20057;-66
2021/10/29 01:41:42;;;;;;;15.13;6.75;;;;;;;4.22;100.00;97950.97;4966388;28;20050;-66
2021/10/29 01:44:09;;;;;;;12.30;6.00;;;;;;;3.81;99.77;97885.22;4966199;28;20060;-66
2021/10/29 01:46:35;;;;;;;16.23;7.85;;;;;;;4.07;100.00;97941.16;4966025;28;20058;-64
2021/10/29 01:49:02;;;;;;;13.30;7.07;;;;;;;4.01;100.00;97941.56;4966118;28;20109;-67
2021/10/29 01:51:29;;;;;;;19.58;8.70;;;;;;;4.03;100.00;97945.59;4966288;28;20050;-67
2021/10/29 01:53:56;;;;;;;16.95;7.00;;;;;;;4.05;100.00;97926.94;4965282;28;20073;-67
2021/10/29 01:56:23;;;;;;;13.98;7.47;;;;;;;4.01;100.00;97936.91;4966517;28;20427;-67
2021/10/29 01:58:51;;;;;;;14.50;6.70;;;;;;;3.63;100.00;97880.69;4966656;28;20438;-67
2021/10/29 02:01:17;;;;;;;18.00;8.07;;;;;;;3.96;100.00;97928.78;4964592;28;20047;-67
2021/10/29 02:03:45;;;;;;;16.33;7.60;;;;;;;3.93;100.00;97934.88;4965785;28;20055;-66
2021/10/29 02:06:12;;;;;;;19.90;7.75;;;;;;;3.62;100.00;97879.06;4964084;28;20518;-67
2021/10/29 02:08:39;;;;;;;19.13;9.95;;;;;;;3.98;100.00;97932.00;4966092;28;20078;-67
2021/10/29 02:11:15;;;;;;;16.30;7.97;;;;;;;3.86;100.00;97917.19;4580631;28;20004556;-65
2021/10/29 02:13:43;;;;;;;20.13;8.80;;;;;;;3.79;100.00;97936.81;4966294;28;20256;-67
2021/10/29 02:16:10;;;;;;;19.98;9.60;;;;;;;3.84;100.00;97919.44;4965270;28;20063;-67
2021/10/29 02:18:37;;;;;;;16.08;8.60;;;;;;;3.98;100.00;97948.44;4965452;28;20138;-68
2021/10/29 02:21:04;;;;;;;63.05;22.52;;;;;;;4.01;100.00;97947.84;4965813;28;20054;-67
2021/10/29 02:23:31;;;;;;;42.05;15.15;;;;;;;3.92;100.00;97966.09;4964808;28;20059;-66
2021/10/29 02:25:58;;;;;;;14.43;7.97;;;;;;;3.80;100.00;97908.28;4965709;28;20881;-67
2021/10/29 02:28:25;;;;;;;25.30;11.15;;;;;;;3.91;99.96;97919.81;4965983;28;20061;-67
2021/10/29 02:30:52;;;;;;;23.05;9.50;;;;;;;3.90;100.00;97943.69;4965656;28;20054;-68
2021/10/29 02:33:20;;;;;;;24.30;10.55;;;;;;;3.90;100.00;97946.44;4965527;28;20082;-66
2021/10/29 02:35:47;;;;;;;17.17;8.55;;;;;;;3.97;100.00;97948.75;4965996;28;20141;-68
2021/10/29 02:38:14;;;;;;;27.80;13.80;;;;;;;3.35;100.00;97846.19;4965692;28;20051;-65
2021/10/29 02:40:42;;;;;;;17.83;8.73;;;;;;;3.93;100.00;97945.84;4965631;28;20498;-67
2021/10/29 02:43:09;;;;;;;22.17;7.55;;;;;;;3.91;100.00;97945.31;4964659;28;20055;-68
2021/10/29 02:45:36;;;;;;;44.38;18.45;;;;;;;3.78;100.00;97926.94;4966173;28;20054;-65
2021/10/29 02:48:05;;;;;;;23.08;9.40;;;;;;;3.86;100.00;97950.91;4964322;28;20051;-66
2021/10/29 02:50:33;;;;;;;18.58;7.78;;;;;;;3.86;100.00;97945.41;4965339;28;20051;-66
2021/10/29 02:53:03;;;;;;;25.40;11.10;;;;;;;3.80;100.00;97952.13;4965135;28;20055;-66
2021/10/29 02:55:31;;;;;;;26.40;12.23;;;;;;;3.74;99.74;97953.34;4963693;28;20138;-67
2021/10/29 02:57:58;;;;;;;30.30;14.30;;;;;;;3.70;99.18;97946.03;4963438;28;20061;-67
2021/10/29 03:00:24;;;;;;;39.72;19.00;;;;;;;3.71;98.54;97948.47;4964884;28;20055;-66
2021/10/29 03:02:56;;;;;;;39.92;18.92;;;;;;;3.61;98.01;97945.91;4965220;28;20051;-65
2021/10/29 03:05:24;;;;;;;44.38;20.73;;;;;;;3.60;97.35;97947.06;4965094;28;20050;-66
2021/10/29 03:07:51;;;;;;;43.20;21.23;;;;;;;3.64;96.84;97948.06;4963484;28;20046;-66
2021/10/29 03:10:17;;;;;;;45.80;22.02;;;;;;;3.43;96.69;97924.09;4964767;28;20082;-66
2021/10/29 03:12:44;;;;;;;48.20;23.25;;;;;;;3.21;96.99;97902.88;4964915;28;20113;-67
2021/10/29 03:15:11;;;;;;;39.15;17.83;;;;;;;3.41;98.33;97921.66;4964344;28;20072;-66
2021/10/29 03:17:39;;;;;;;35.50;17.30;;;;;;;3.05;98.70;97868.72;4964146;28;20058;-67
2021/10/29 03:20:08;;;;;;;34.80;15.40;;;;;;;3.45;99.27;97938.28;4965056;28;20062;-66
2021/10/29 03:22:35;;;;;;;26.35;12.30;;;;;;;3.49;99.72;97940.16;4965096;28;20238;-68
2021/10/29 03:25:03;;;;;;;37.40;15.65;;;;;;;3.45;99.86;97944.59;4965080;28;20078;-65
2021/10/29 03:27:29;;;;;;;28.38;13.93;;;;;;;3.52;100.00;97949.66;4965021;28;20070;-65
2021/10/29 03:29:57;;;;;;;22.90;11.30;;;;;;;3.13;99.68;97892.63;4964659;28;20061;-67
2021/10/29 03:32:24;;;;;;;28.52;12.18;;;;;;;3.52;99.13;97936.78;4963257;28;20070;-67
2021/10/29 03:34:51;;;;;;;23.90;10.40;;;;;;;3.52;99.68;97936.78;4964763;28;20062;-67
2021/10/29 03:42:34;;;;;;;21.73;10.73;;;;;;;3.50;100.00;97925.31;4964746;28;20054;-66
2021/10/29 03:45:04;;;;;;;20.35;9.70;;;;;;;3.47;100.00;97928.66;4964579;28;20062;-65
2021/10/29 03:47:37;;;;;;;20.55;10.52;;;;;;;3.47;100.00;97928.66;4964659;28;20076;-65
2021/10/29 03:52:57;;;;;;;24.65;10.00;;;;;;;3.48;100.00;97933.03;4964566;28;20369;-65
2021/10/29 03:55:34;;;;;;;38.92;14.57;;;;;;;3.57;100.00;97931.22;4965002;28;20528;-66
2021/10/29 03:58:01;;;;;;;23.27;10.00;;;;;;;3.13;100.00;97865.25;4962895;28;20054;-65
2021/10/29 04:00:31;;;;;;;20.05;9.90;;;;;;;3.56;100.00;97935.06;4964895;28;20054;-66
2021/10/29 04:03:02;;;;;;;20.83;11.07;;;;;;;3.60;100.00;97932.53;4964011;28;20090;-65
2021/10/29 04:05:31;;;;;;;28.08;11.73;;;;;;;3.56;100.00;97937.78;4963308;28;20098;-65
2021/10/29 04:07:58;;;;;;;19.45;9.57;;;;;;;3.54;100.00;97923.59;4963227;28;20577;-66
2021/10/29 04:10:28;;;;;;;22.00;9.85;;;;;;;3.54;100.00;97926.31;4964887;28;20054;-66
2021/10/29 04:12:58;;;;;;;21.63;8.75;;;;;;;3.44;100.00;97937.50;4966211;28;20065;-65
2021/10/29 04:15:25;;;;;;;23.35;9.23;;;;;;;3.34;100.00;97902.06;4967104;28;20050;-65
2021/10/29 04:17:52;;;;;;;16.95;8.88;;;;;;;3.28;100.00;97927.94;4968554;28;20063;-66
2021/10/29 04:20:19;;;;;;;26.83;11.52;;;;;;;3.31;100.00;97930.06;4966556;28;20055;-65
2021/10/29 04:22:46;;;;;;;21.65;10.98;;;;;;;3.41;100.00;97927.16;4966491;28;20061;-65
2021/10/29 04:25:13;;;;;;;18.45;8.80;;;;;;;3.09;100.00;97869.72;4967730;28;20054;-65
2021/10/29 04:27:45;;;;;;;18.10;9.13;;;;;;;3.43;100.00;97922.16;4967707;28;20058;-65
2021/10/29 04:30:15;;;;;;;20.63;8.70;;;;;;;3.37;100.00;97936.28;4967939;28;20066;-65
2021/10/29 04:32:47;;;;;;;31.10;15.05;;;;;;;3.41;100.00;97935.38;4967586;28;20062;-65
2021/10/29 04:35:14;;;;;;;35.60;16.15;;;;;;;3.34;100.00;97937.66;4967783;28;20276;-65
2021/10/29 04:37:41;;;;;;;213.15;66.57;;;;;;;3.35;100.00;97931.06;4967920;28;20051;-65
2021/10/29 04:40:09;;;;;;;141.85;50.08;;;;;;;3.33;99.64;97925.09;4965982;28;20055;-65
2021/10/29 04:42:38;;;;;;;79.50;29.55;;;;;;;3.21;98.96;97927.50;4967496;28;20145;-65
2021/10/29 04:45:06;;;;;;;39.72;17.88;;;;;;;3.17;98.82;97931.97;4966774;28;20540;-65
2021/10/29 04:47:33;;;;;;;36.28;18.75;;;;;;;3.18;98.70;97932.78;4966418;28;20070;-66
2021/10/29 04:50:01;;;;;;;41.15;19.20;;;;;;;2.64;99.19;97856.84;4967487;28;20485;-64
2021/10/29 04:52:28;;;;;;;31.55;15.20;;;;;;;3.10;99.15;97937.00;4967699;28;20138;-64
2021/10/29 04:54:56;;;;;;;30.38;13.90;;;;;;;3.03;99.62;97947.56;4967742;28;20043;-65
2021/10/29 04:57:23;;;;;;;22.17;10.32;;;;;;;2.89;100.00;97931.06;4966980;28;20054;-64
2021/10/29 04:59:50;;;;;;;29.63;10.90;;;;;;;3.02;99.52;97921.28;4967598;28;20057;-65
2021/10/29 05:02:16;;;;;;;26.17;11.35;;;;;;;3.10;100.00;97942.47;4965088;28;20043;-65
2021/10/29 05:04:43;;;;;;;21.92;10.50;;;;;;;3.10;100.00;97942.47;4967229;28;20501;-65
2021/10/29 05:07:10;;;;;;;19.88;9.60;;;;;;;2.54;100.00;97835.97;4967001;28;20206;-64
2021/10/29 05:09:37;;;;;;;23.40;10.75;;;;;;;3.32;100.00;97950.84;4967203;28;20573;-64
2021/10/29 05:12:04;;;;;;;24.85;13.55;;;;;;;3.41;100.00;97950.97;4967279;28;20525;-65
2021/10/29 05:14:31;;;;;;;39.42;20.55;;;;;;;3.06;100.00;97908.63;4967104;28;20062;-66
2021/10/29 05:16:57;;;;;;;57.28;25.90;;;;;;;3.46;100.00;97957.19;4967274;28;20415;-65
2021/10/29 05:19:25;;;;;;;51.05;20.15;;;;;;;3.60;100.00;97963.50;4965591;28;20047;-65
2021/10/29 05:21:51;;;;;;;66.05;28.13;;;;;;;3.69;100.00;97964.41;4965500;28;20434;-65
2021/10/29 05:24:18;;;;;;;79.35;33.08;;;;;;;3.78;100.00;97959.81;4965833;28;20061;-65
2021/10/29 05:26:45;;;;;;;64.57;25.75;;;;;;;3.84;100.00;97953.13;4966543;28;20068;-64
2021/10/29 05:29:12;;;;;;;54.00;22.48;;;;;;;3.47;100.00;97904.03;4966696;28;20054;-65
2021/10/29 05:31:39;;;;;;;45.25;19.73;;;;;;;3.97;100.00;97962.44;4966699;28;20047;-67
2021/10/29 05:34:06;;;;;;;42.28;19.63;;;;;;;3.99;100.00;97962.97;4966889;28;20543;-67
2021/10/29 05:36:35;;;;;;;31.38;16.20;;;;;;;3.52;100.00;97873.81;4966398;28;20070;-64
2021/10/29 05:39:06;;;;;;;39.85;19.85;;;;;;;3.81;99.54;97909.09;4964908;28;20051;-65
2021/10/29 05:41:33;;;;;;;45.70;25.42;;;;;;;4.37;99.90;97973.38;4966495;28;20058;-66
2021/10/29 05:44:00;;;;;;;40.78;20.45;;;;;;;4.46;99.18;97977.03;4966008;28;20552;-65
2021/10/29 05:46:30;;;;;;;43.90;20.23;;;;;;;4.49;98.82;97992.88;4966165;28;20054;-65
2021/10/29 05:48:57;;;;;;;36.53;18.63;;;;;;;4.64;98.99;97991.72;4964571;28;20072;-66
2021/10/29 05:51:25;;;;;;;43.10;18.15;;;;;;;4.81;97.80;97978.13;4964849;28;20057;-65
2021/10/29 05:54:09;;;;;;;33.15;16.00;;;;;;;4.52;97.36;97923.66;4966178;28;20089;-66
2021/10/29 05:56:37;;;;;;;;;;;;;;;5.08;96.29;97977.22;4965189;28;20069;-66
2021/10/29 05:59:05;;;;;;;48.70;21.30;;;;;;;5.05;96.40;97984.16;4966059;28;19990;-65
2021/10/29 06:01:32;;;;;;;71.53;28.35;;;;;;;5.32;95.44;97995.00;4964627;28;20062;-65
2021/10/29 06:04:00;;;;;;;116.75;41.13;;;;;;;5.55;94.37;97998.53;4965993;28;20411;-66
2021/10/29 06:06:26;;;;;;;67.07;26.45;;;;;;;3.62;92.97;97709.22;4961108;28;20046;-59
2021/10/29 06:08:53;;;;;;;39.35;18.60;;;;;;;5.12;92.21;97876.63;4952184;28;20145;-66
2021/10/29 06:11:21;;;;;;;42.60;18.95;;;;;;;5.70;91.56;97945.91;4965109;28;20051;-59
2021/10/29 06:13:47;;;;;;;52.92;18.40;;;;;;;6.18;91.05;97999.00;4946419;28;20070;-59
2021/10/29 06:16:15;;;;;;;40.50;18.42;;;;;;;6.12;91.00;97961.78;4962801;28;20165;-61
2021/10/29 06:18:42;;;;;;;45.28;19.48;;;;;;;6.31;89.14;97965.06;4966046;28;20577;-60
2021/10/29 06:21:10;;;;;;;44.75;19.73;;;;;;;6.35;88.31;97952.31;4964954;28;20532;-68
2021/10/29 06:26:26;;;;;;;95.53;34.90;;;;;;;6.74;86.15;97954.94;4964684;28;20047;-63
2021/10/29 06:28:54;;;;;;;136.70;46.58;;;;;;;7.22;84.77;97994.13;4964114;28;20070;-58
2021/10/29 06:31:21;;;;;;;113.43;43.67;;;;;;;5.37;83.56;97733.91;4964777;28;20062;-65
2021/10/29 06:33:48;;;;;;;98.35;38.40;;;;;;;6.92;84.48;97907.00;4962841;28;20082;-64
2021/10/29 06:36:15;;;;;;;79.43;33.72;;;;;;;7.66;83.18;97993.75;4961376;28;20062;-59
2021/10/29 06:38:43;;;;;;;74.13;31.02;;;;;;;7.31;82.43;97900.44;4965327;28;20347;-66
2021/10/29 06:41:10;;;;;;;72.40;28.85;;;;;;;8.20;81.24;97994.03;4963115;28;20054;-60
2021/10/29 06:43:50;;;;;;;56.70;27.08;;;;;;;8.31;82.35;97996.13;4965428;28;20065;-57
2021/10/29 07:40:21;;;;;;;37.55;17.55;;;;;;;10.32;72.35;97852.16;4916916;28;20122;-64
2021/10/29 07:42:55;;;;;;;46.42;18.15;;;;;;;10.73;72.38;97880.31;4917876;28;20047;-60
2021/10/29 07:45:22;;;;;;;;;;;;;;;11.21;71.82;97917.34;4919181;28;20051;-68
2021/10/29 07:47:50;;;;;;;44.33;22.33;;;;;;;11.36;71.92;97930.47;4924754;28;19933;-59
2021/10/29 07:50:19;;;;;;;35.45;18.55;;;;;;;11.37;70.77;97907.91;4923699;28;20094;-66
2021/10/29 07:52:49;;;;;;;35.28;17.77;;;;;;;11.90;70.37;97929.59;4923035;28;20058;-65
2021/10/29 07:55:17;;;;;;;26.30;14.35;;;;;;;12.26;68.34;97959.09;4911566;28;20051;-60
2021/10/29 07:57:48;;;;;;;29.17;12.40;;;;;;;11.80;68.32;97929.31;4919491;28;20070;-62
2021/10/29 08:00:17;;;;;;;24.00;12.45;;;;;;;12.32;67.60;97957.66;4911561;28;20050;-69
2021/10/29 08:02:50;;;;;;;24.70;13.13;;;;;;;11.60;67.09;97813.78;4913301;28;20484;-65
2021/10/29 08:05:18;;;;;;;28.08;12.88;;;;;;;12.52;66.52;98001.00;4920312;28;20429;-64
2021/10/29 08:07:45;;;;;;;26.58;13.68;;;;;;;12.33;66.48;97877.88;4925146;28;20059;-62
2021/10/29 08:10:13;;;;;;;51.97;24.60;;;;;;;12.37;65.61;97842.66;4936266;28;20057;-62
2021/10/29 08:12:40;;;;;;;30.70;16.27;;;;;;;12.36;64.41;97791.81;4941315;28;20053;-62
2021/10/29 08:15:09;;;;;;;34.30;14.00;;;;;;;12.69;64.92;97844.97;4934264;28;20573;-62
2021/10/29 08:17:36;;;;;;;28.15;12.88;;;;;;;12.83;63.42;97839.72;4915348;28;20213;-62
2021/10/29 08:20:08;;;;;;;22.13;10.98;;;;;;;13.27;63.65;97910.59;4918600;28;20549;-64
2021/10/29 08:22:36;;;;;;;23.25;11.35;;;;;;;12.44;62.48;97749.13;4918680;28;20047;-62
2021/10/29 08:25:05;;;;;;;23.67;12.68;;;;;;;12.94;62.61;97835.19;4913947;28;20545;-62
2021/10/29 08:27:32;;;;;;;20.73;9.82;;;;;;;13.84;62.44;97928.38;4914449;28;20058;-63
2021/10/29 08:29:59;;;;;;;23.25;11.73;;;;;;;13.68;61.17;97887.53;4909455;28;20294;-63
2021/10/29 08:32:26;;;;;;;21.45;10.38;;;;;;;13.44;60.57;97825.81;4915283;28;20052;-65
2021/10/29 08:34:53;;;;;;;22.33;10.65;;;;;;;12.46;59.60;97695.97;4912205;28;20702;-61
2021/10/29 08:37:21;;;;;;;19.75;10.02;;;;;;;11.89;60.36;97649.53;4911765;28;20381;-65
2021/10/29 08:39:48;;;;;;;24.70;10.55;;;;;;;14.45;59.68;97937.44;4898846;28;20048;-62
2021/10/29 08:42:14;;;;;;;17.13;8.00;;;;;;;13.39;59.15;97725.94;4907189;28;20315;-59
2021/10/29 08:44:41;;;;;;;12.75;7.68;;;;;;;11.83;57.53;97523.31;4903552;28;20051;-65
2021/10/29 08:47:08;;;;;;;13.45;5.97;;;;;;;14.69;55.48;97920.28;4909172;28;20082;-63
2021/10/29 08:49:35;;;;;;;14.13;8.25;;;;;;;14.01;55.10;97922.31;4913211;28;20054;-62
2021/10/29 08:52:06;;;;;;;12.13;5.85;;;;;;;13.70;55.72;97871.25;4905623;28;20428;-61
2021/10/29 08:54:33;;;;;;;8.75;6.15;;;;;;;13.68;55.41;97814.34;4901078;28;21032;-63
2021/10/29 08:57:01;;;;;;;12.00;6.50;;;;;;;14.09;55.49;97919.31;4924973;28;20047;-61
2021/10/29 08:59:31;;;;;;;9.73;5.45;;;;;;;13.85;55.81;97885.47;4964172;28;20057;-68
2021/10/29 09:02:12;;;;;;;10.57;6.03;;;;;;;14.14;55.71;97881.97;4960009;28;20217;-65
2021/10/29 09:32:39;;;;;;;8.63;4.50;;;;;;;14.90;52.86;97898.28;4968633;28;20051;-61
2021/10/29 09:35:16;;;;;;;7.20;4.93;;;;;;;14.84;53.18;97877.50;4965512;28;20090;-73
2021/10/29 09:37:56;;;;;;;8.00;4.93;;;;;;;15.33;52.90;97892.09;4966500;28;20081;-74
2021/10/29 09:40:25;;;;;;;8.07;6.18;;;;;;;15.60;51.80;97904.78;4966311;28;20082;-60
2021/10/29 09:42:53;;;;;;;7.78;4.68;;;;;;;15.75;50.96;97889.78;4966944;28;20445;-63
2021/10/29 09:45:28;;;;;;;10.45;4.55;;;;;;;15.79;50.64;97885.03;4964609;28;20051;-65
2021/10/29 09:48:19;;;;;;;4.15;3.60;;;;;;;15.94;49.05;97881.19;4965114;28;20072;-62
2021/10/29 09:50:57;;;;;;;6.97;3.72;;;;;;;15.07;48.81;97869.81;4960939;28;20134;-62
2021/10/29 09:58:54;;;;;;;4.22;3.72;;;;;;;15.55;47.16;97843.72;4946845;28;20058;-60
2021/10/29 10:01:22;;;;;;;5.47;3.38;;;;;;;15.12;47.61;97834.03;4956838;28;20145;-63
2021/10/29 10:03:51;;;;;;;9.35;4.05;;;;;;;15.58;47.24;97865.28;4966135;28;20197;-67
2021/10/29 10:06:25;;;;;;;7.55;3.88;;;;;;;15.42;47.99;97859.13;4964941;28;20141;-65
2021/10/29 10:08:53;;;;;;;7.57;4.07;;;;;;;15.02;47.45;97819.91;4965228;28;20098;-65
2021/10/29 10:11:24;;;;;;;6.45;3.88;;;;;;;15.36;48.52;97855.03;4965081;28;20053;-71
2021/10/29 10:13:54;;;;;;;8.30;4.85;;;;;;;15.59;47.19;97852.09;4963252;28;20510;-69
2021/10/29 10:16:27;;;;;;;8.02;4.75;;;;;;;14.63;47.90;97746.13;4964770;28;20054;-68
2021/10/29 10:18:58;;;;;;;9.43;5.80;;;;;;;15.48;47.26;97829.66;4963597;28;20056;-67
2021/10/29 10:21:27;;;;;;;9.63;4.72;;;;;;;15.95;48.00;97842.88;4964650;28;20162;-72
2021/10/29 10:23:57;;;;;;;6.63;4.13;;;;;;;14.20;46.66;97551.66;4964077;28;20051;-66
2021/10/29 10:49:06;;;;;;;7.65;3.90;;;;;;;15.91;44.02;97764.59;4964093;28;20058;-68
2021/10/29 10:51:46;;;;;;;4.85;3.53;;;;;;;15.90;42.12;97818.88;4962453;28;20063;-72
2021/10/29 10:57:14;;;;;;;4.78;2.92;;;;;;;16.11;41.16;97807.88;4961235;28;20097;-73
2021/10/29 11:06:01;;;;;;;5.40;2.80;;;;;;;15.67;39.21;97804.31;4945361;29;20055;-69
2021/10/29 11:11:13;;;;;;;14.13;4.38;;;;;;;16.18;37.86;97790.34;4964932;28;20219;-71
2021/10/29 11:13:42;;;;;;;2.88;2.38;;;;;;;15.63;37.42;97792.31;4964695;28;20054;-69
2021/10/29 11:16:28;;;;;;;2.50;2.30;;;;;;;15.26;37.76;97726.47;4963498;28;20493;-71
2021/10/29 11:18:55;;;;;;;2.85;2.58;;;;;;;15.66;36.73;97787.94;4945187;28;20063;-70
2021/10/29 11:21:35;;;;;;;3.53;2.53;;;;;;;15.46;37.32;97703.56;4943833;28;20057;-63
2021/10/29 11:24:06;;;;;;;2.67;2.47;;;;;;;15.56;35.77;97753.13;4946128;28;20475;-75
2021/10/29 11:26:49;;;;;;;4.68;2.85;;;;;;;13.88;36.39;97411.25;4962168;28;20062;-68
2021/10/29 11:29:16;;;;;;;18.23;4.68;;;;;;;16.27;36.16;97769.25;4963417;28;20061;-64
2021/10/29 11:31:51;;;;;;;3.13;2.83;;;;;;;16.24;35.29;97767.25;4962648;28;20445;-62
2021/10/29 11:34:18;;;;;;;3.70;2.95;;;;;;;15.39;35.63;97706.31;4963887;28;20505;-75
2021/10/29 11:36:51;;;;;;;10.90;3.58;;;;;;;16.34;36.35;97763.69;4962436;28;20042;-72
2021/10/29 11:39:23;;;;;;;5.65;3.20;;;;;;;15.76;36.01;97673.47;4962112;28;20050;-68
2021/10/29 11:41:52;;;;;;;5.10;2.80;;;;;;;16.31;36.74;97733.72;4961590;28;20473;-62
2021/10/29 11:44:21;;;;;;;20.23;5.78;;;;;;;16.83;35.31;97765.19;4951392;28;20419;-63
2021/10/29 11:46:50;;;;;;;6.95;3.47;;;;;;;16.99;35.59;97762.84;4956032;28;20530;-61
2021/10/29 11:49:29;;;;;;;4.88;2.90;;;;;;;16.80;34.53;97704.41;4953335;28;20043;-62
2021/10/29 11:52:00;;;;;;;2.80;2.42;;;;;;;7.02;34.51;96210.28;4953632;28;20050;-63
2021/10/29 11:54:31;;;;;;;4.70;2.80;;;;;;;16.67;34.61;97751.53;4963455;28;20082;-66
2021/10/29 11:57:17;;;;;;;2.53;2.33;;;;;;;16.24;34.66;97744.88;4962676;28;20061;-66
2021/10/29 12:05:51;;;;;;;10.70;2.88;;;;;;;16.76;34.12;97748.34;4944919;28;20063;-62
2021/10/29 12:08:25;;;;;;;3.38;2.22;;;;;;;17.04;33.80;97737.28;4945361;28;20058;-63
2021/10/29 12:11:00;;;;;;;3.78;3.10;;;;;;;17.11;33.49;97748.47;4944113;28;20052;-65
2021/10/29 12:13:28;;;;;;;3.85;2.72;;;;;;;16.51;33.89;97609.22;4944062;29;20055;-66
2021/10/29 12:15:56;;;;;;;3.42;3.08;;;;;;;17.39;33.50;97728.91;4944465;29;20055;-65
2021/10/29 12:18:28;;;;;;;5.45;3.42;;;;;;;17.36;34.11;97729.72;4944805;28;20066;-66
2021/10/29 12:20:55;;;;;;;7.82;4.22;;;;;;;17.34;34.29;97704.91;4944597;28;20102;-66
2021/10/29 12:23:26;;;;;;;6.47;3.70;;;;;;;17.60;34.37;97737.38;4943519;29;20061;-64
2021/10/29 12:26:02;;;;;;;6.30;2.97;;;;;;;17.58;34.06;97695.75;4948090;28;20055;-70
2021/10/29 12:28:38;;;;;;;2.95;2.67;;;;;;;17.61;33.30;97699.75;4963792;28;20414;-67
2021/10/29 12:31:24;;;;;;;3.20;2.90;;;;;;;17.20;33.40;97606.13;4958975;28;20055;-66
2021/10/29 12:54:34;;;;;;;5.15;3.15;;;;;;;17.25;36.32;97720.50;4964511;28;20047;-59
2021/10/29 13:02:22;;;;;;;4.72;3.22;;;;;;;16.93;36.03;97621.69;4947113;28;20162;-62
2021/10/29 13:04:53;;;;;;;3.33;3.03;;;;;;;17.59;35.96;97702.19;4947132;29;20054;-64
2021/10/29 13:07:25;;;;;;;5.07;3.30;;;;;;;17.28;35.62;97669.28;4961900;28;20059;-60
2021/10/29 13:10:05;;;;;;;7.32;3.10;;;;;;;16.44;35.43;97525.28;4965896;28;20059;-67
2021/10/29 13:12:42;;;;;;;4.00;3.60;;;;;;;17.48;35.17;97706.97;4967504;28;20047;-66
2021/10/29 13:15:12;;;;;;;3.45;3.00;;;;;;;17.26;36.02;97688.53;4965594;28;20063;-64
2021/10/29 13:17:45;;;;;;;4.75;3.30;;;;;;;17.38;35.88;97696.53;4965161;28;20445;-65
2021/10/29 13:20:37;;;;;;;8.18;3.83;;;;;;;17.37;36.07;97700.53;4966705;28;20059;-64
2021/10/29 13:26:04;;;;;;;10.85;4.30;;;;;;;17.28;36.40;97697.31;4966590;28;20061;-66
2021/10/29 13:37:13;;;;;;;5.30;3.30;;;;;;;16.81;36.19;97701.22;4966416;28;20055;-67
2021/10/29 13:53:54;;;;;;;3.37;3.00;;;;;;;16.38;38.90;97691.00;4966601;28;20147;-69
2021/10/29 13:56:44;;;;;;;5.32;3.60;;;;;;;16.35;38.77;97692.59;4965970;28;21185;-64
2021/10/29 14:31:45;;;;;;;5.32;3.78;;;;;;;15.63;43.42;97696.53;4964927;28;20047;-64
2021/10/29 14:34:22;;;;;;;;;;;;;;;15.55;44.00;97698.47;4964625;28;20496;-66
2021/10/29 14:37:13;;;;;;;5.32;3.25;;;;;;;15.44;44.01;97700.38;4965267;28;19926;-65
2021/10/29 14:42:38;;;;;;;7.40;4.20;;;;;;;15.07;44.65;97685.66;4964718;28;20173;-65
2021/10/29 14:45:11;;;;;;;5.68;3.65;;;;;;;14.81;45.29;97652.31;4964071;28;20055;-63
2021/10/29 15:32:43;;;;;;;60.45;27.17;;;;;;;12.69;58.07;97728.22;4964604;28;20082;-65
2021/10/29 15:43:54;;;;;;;41.53;22.55;;;;;;;11.85;62.45;97745.84;4961986;28;20065;-63
2021/10/29 15:46:34;;;;;;;42.78;22.60;;;;;;;11.76;62.57;97734.13;4956353;28;20055;-65
2021/10/29 15:51:49;;;;;;;56.75;23.58;;;;;;;11.41;62.28;97695.19;4964576;28;20051;-66
2021/10/29 15:54:16;;;;;;;58.58;29.92;;;;;;;11.67;62.01;97730.72;4964169;28;20065;-65
2021/10/29 16:18:12;;;;;;;26.48;13.82;;;;;;;10.59;67.96;97768.28;4967830;28;20083;-64
2021/10/29 16:20:39;;;;;;;51.83;25.33;;;;;;;10.35;68.36;97760.84;4968408;28;20058;-65
2021/10/29 16:23:05;;;;;;;47.75;24.98;;;;;;;10.36;68.30;97775.50;4966843;28;20047;-65
2021/10/29 16:25:37;;;;;;;71.97;30.20;;;;;;;9.74;68.53;97698.47;4968022;28;20054;-65
2021/10/29 16:28:08;;;;;;;124.05;46.85;;;;;;;10.16;69.26;97796.66;4968118;28;20058;-65
2021/10/29 16:30:35;;;;;;;168.55;58.83;;;;;;;10.01;70.11;97778.00;4967832;28;20057;-65
2021/10/29 16:35:40;;;;;;;154.68;54.80;;;;;;;9.90;71.67;97790.69;4967550;28;20057;-65
2021/10/29 16:38:08;;;;;;;112.30;47.80;;;;;;;9.56;71.95;97746.94;4967398;28;20058;-65
2021/10/29 16:40:36;;;;;;;126.97;50.72;;;;;;;9.82;72.01;97805.44;4967482;28;20059;-65
2021/10/29 16:43:05;;;;;;;79.68;34.15;;;;;;;9.39;72.88;97747.13;4967719;28;20058;-66